Time;durP1;ratioP1;P1;durP2;ratioP2;P2;SDS_P1;SDS_P2;PMS_P1;PMS_P2;Temp;Humidity;BMP_temperature;BMP_pressure;BME280_temperature;BME280_humidity;BME280_pressure;Samples;Min_cycle;Max_cycle;Signal;HPM_P1;HPM_P2
2023/12/05 00:03:53;;;;;;;50.50;26.70;;;;;;;-4.64;81.91;98677.30;226295;1275;26010;-74
2023/12/05 00:08:59;;;;;;;52.30;26.90;;;;;;;-4.72;82.24;98672.12;226235;1275;22643;-74
2023/12/05 00:14:01;;;;;;;53.20;27.50;;;;;;;-4.82;82.24;98667.94;226278;1254;22932;-74
2023/12/05 00:19:03;;;;;;;54.20;29.20;;;;;;;-4.93;82.15;98664.12;226250;1254;22958;-74
2023/12/05 00:24:05;;;;;;;48.90;27.00;;;;;;;-5.04;82.25;98660.51;226414;1273;22662;-74
2023/12/05 00:29:07;;;;;;;50.80;26.90;;;;;;;-5.17;81.96;98660.79;226390;1275;22584;-74
2023/12/05 00:34:09;;;;;;;52.10;27.10;;;;;;;-5.28;82.15;98663.91;226360;1272;24337;-74
2023/12/05 00:39:11;;;;;;;50.90;26.00;;;;;;;-5.39;82.22;98665.75;226388;1275;23115;-74
2023/12/05 00:44:13;;;;;;;44.20;25.80;;;;;;;-5.50;82.06;98664.02;226430;1269;25790;-73
2023/12/05 00:49:15;;;;;;;43.90;24.60;;;;;;;-5.62;81.86;98657.02;226385;1273;22616;-72
2023/12/05 00:54:18;;;;;;;45.40;24.30;;;;;;;-5.74;82.05;98660.97;226317;1273;22898;-75
2023/12/05 00:59:20;;;;;;;46.00;24.20;;;;;;;-5.87;81.85;98661.20;226404;1275;24345;-73
2023/12/05 01:04:21;;;;;;;43.80;24.30;;;;;;;-5.99;81.82;98661.43;226287;1273;22773;-73
2023/12/05 01:09:24;;;;;;;47.90;24.70;;;;;;;-6.11;82.09;98658.14;226359;1275;22612;-73
2023/12/05 01:14:26;;;;;;;45.50;24.70;;;;;;;-6.22;82.08;98656.37;226384;1269;25795;-73
2023/12/05 01:19:28;;;;;;;47.30;26.00;;;;;;;-6.25;82.44;98652.59;226364;1275;22571;-73
2023/12/05 01:24:30;;;;;;;47.90;26.20;;;;;;;-6.23;82.35;98652.48;226423;1273;22636;-73
2023/12/05 01:29:32;;;;;;;46.50;25.50;;;;;;;-6.25;81.95;98651.80;226388;1275;22627;-73
2023/12/05 01:34:34;;;;;;;42.30;23.50;;;;;;;-6.28;82.27;98643.88;226357;1272;22623;-74
2023/12/05 01:39:36;;;;;;;45.70;25.10;;;;;;;-6.29;82.10;98632.45;226339;1275;22749;-74
2023/12/05 01:44:38;;;;;;;44.20;25.70;;;;;;;-6.35;81.89;98622.66;226460;1272;22709;-73
2023/12/05 01:49:41;;;;;;;40.80;23.60;;;;;;;-6.45;81.96;98617.09;226409;1275;23074;-74
2023/12/05 01:54:43;;;;;;;42.90;24.60;;;;;;;-6.59;81.91;98615.64;226371;1275;23323;-74
2023/12/05 01:59:45;;;;;;;43.40;23.70;;;;;;;-6.67;82.00;98616.09;226390;1272;22695;-74
2023/12/05 02:04:48;;;;;;;44.70;25.70;;;;;;;-6.71;82.44;98617.34;226430;1275;23858;-73
2023/12/05 02:09:50;;;;;;;49.30;25.60;;;;;;;-6.72;82.48;98612.79;226486;1260;22625;-75
2023/12/05 02:14:52;;;;;;;39.00;22.00;;;;;;;-6.64;82.67;98610.48;226397;1273;22558;-75
2023/12/05 02:20:20;;;;;;;41.10;23.00;;;;;;;-6.50;82.99;98600.09;226279;1253;22644;-75
2023/12/05 02:25:36;;;;;;;37.90;22.70;;;;;;;-6.30;82.74;98591.59;226460;1273;22681;-75
2023/12/05 02:30:38;;;;;;;42.50;24.30;;;;;;;-6.10;83.01;98575.16;226492;1275;22616;-75
2023/12/05 02:35:42;;;;;;;46.50;25.50;;;;;;;-5.91;83.22;98571.77;226472;1275;22562;-76
2023/12/05 02:40:44;;;;;;;44.00;25.50;;;;;;;-5.71;83.25;98569.73;226608;1272;22563;-73
2023/12/05 02:45:50;;;;;;;46.40;27.50;;;;;;;-5.52;83.29;98569.96;226381;1273;23642;-74
2023/12/05 02:51:09;;;;;;;44.00;25.90;;;;;;;-5.34;83.34;98560.73;226515;1270;22664;-73
2023/12/05 02:56:11;;;;;;;44.50;26.00;;;;;;;-5.18;83.26;98561.14;226425;1270;22575;-73
2023/12/05 03:01:13;;;;;;;42.60;25.50;;;;;;;-5.05;83.06;98558.76;226476;1272;26463;-74
2023/12/05 03:06:15;;;;;;;41.90;26.00;;;;;;;-4.91;83.20;98553.23;226454;1272;22557;-73
2023/12/05 03:11:17;;;;;;;43.10;24.80;;;;;;;-4.77;83.13;98546.15;226422;1273;26205;-73
2023/12/05 03:16:19;;;;;;;42.80;24.80;;;;;;;-4.66;83.08;98554.20;226446;1272;22658;-73
2023/12/05 03:21:21;;;;;;;47.90;26.20;;;;;;;-4.56;83.10;98552.52;226456;1269;22726;-73
2023/12/05 03:26:24;;;;;;;44.70;27.40;;;;;;;-4.45;83.05;98550.95;226492;1275;22605;-75
2023/12/05 03:31:26;;;;;;;41.60;25.30;;;;;;;-4.36;83.20;98551.92;226457;1273;22714;-74
2023/12/05 03:36:28;;;;;;;44.50;24.90;;;;;;;-4.30;82.85;98556.80;226557;1270;26699;-75
2023/12/05 03:41:30;;;;;;;44.30;26.50;;;;;;;-4.23;82.49;98552.45;226452;1263;26542;-75
2023/12/05 03:46:32;;;;;;;45.00;26.30;;;;;;;-4.17;82.65;98550.83;226487;1253;22599;-75
2023/12/05 03:51:34;;;;;;;45.00;25.30;;;;;;;-4.07;82.65;98543.60;226294;1273;22611;-75
2023/12/05 03:56:36;;;;;;;45.20;27.00;;;;;;;-3.99;82.58;98541.00;226508;1269;22650;-75
2023/12/05 04:01:38;;;;;;;45.90;27.00;;;;;;;-3.92;82.71;98537.27;226485;1272;22600;-75
2023/12/05 04:06:41;;;;;;;45.30;27.20;;;;;;;-3.88;82.91;98528.94;226310;1273;22591;-75
2023/12/05 04:11:43;;;;;;;47.00;27.90;;;;;;;-3.79;82.97;98536.07;226463;1272;22604;-75
2023/12/05 04:16:45;;;;;;;50.00;29.10;;;;;;;-3.73;82.84;98532.00;226388;1270;22585;-75
2023/12/05 04:21:47;;;;;;;51.00;29.60;;;;;;;-3.66;82.58;98526.86;226492;1253;22611;-75
2023/12/05 04:26:49;;;;;;;52.20;30.30;;;;;;;-3.56;82.86;98524.31;226485;1269;25359;-75
2023/12/05 04:31:51;;;;;;;48.40;30.20;;;;;;;-3.48;83.06;98527.87;226469;1273;22661;-75
2023/12/05 04:36:53;;;;;;;59.50;32.40;;;;;;;-3.40;82.67;98529.55;226455;1273;22606;-75
2023/12/05 04:41:55;;;;;;;53.10;32.90;;;;;;;-3.34;82.76;98532.02;226492;1273;25153;-73
2023/12/05 04:46:57;;;;;;;58.60;33.80;;;;;;;-3.29;82.72;98532.73;226477;1275;22691;-75
2023/12/05 04:52:00;;;;;;;57.30;35.20;;;;;;;-3.30;82.20;98531.96;226523;1273;23629;-73
2023/12/05 04:57:03;;;;;;;54.90;33.30;;;;;;;-3.38;82.48;98527.50;226526;1273;22680;-74
2023/12/05 05:02:05;;;;;;;55.40;34.50;;;;;;;-3.37;82.48;98526.59;226516;1272;26146;-74
2023/12/05 05:07:07;;;;;;;56.60;34.50;;;;;;;-3.35;82.48;98532.67;226457;1275;22826;-74
2023/12/05 05:12:10;;;;;;;61.60;35.20;;;;;;;-3.36;82.21;98528.25;226376;1275;22580;-74
2023/12/05 05:17:12;;;;;;;58.10;34.50;;;;;;;-3.35;82.52;98531.77;226478;1272;22575;-73
2023/12/05 05:22:15;;;;;;;56.70;33.60;;;;;;;-3.31;82.50;98535.98;226473;1272;25491;-74
2023/12/05 05:27:17;;;;;;;65.90;36.50;;;;;;;-3.31;82.44;98531.12;226502;1272;26200;-75
2023/12/05 05:32:19;;;;;;;63.10;37.60;;;;;;;-3.33;82.31;98529.59;226472;1272;25509;-74
2023/12/05 05:37:21;;;;;;;63.90;37.30;;;;;;;-3.34;82.25;98529.09;226507;1275;23004;-75
2023/12/05 05:42:23;;;;;;;60.20;36.30;;;;;;;-3.38;82.47;98525.27;226482;1275;22591;-73
2023/12/05 05:47:25;;;;;;;55.00;33.00;;;;;;;-3.38;82.61;98525.65;226472;1269;22593;-74
2023/12/05 05:52:27;;;;;;;67.00;38.80;;;;;;;-3.38;82.49;98523.74;226522;1275;22604;-75
2023/12/05 05:57:30;;;;;;;63.40;36.50;;;;;;;-3.39;82.33;98526.70;226438;1269;22582;-73
2023/12/05 06:02:32;;;;;;;75.70;40.40;;;;;;;-3.38;82.56;98527.53;226541;1272;22676;-73
2023/12/05 06:07:34;;;;;;;70.70;37.80;;;;;;;-3.37;82.57;98532.42;226343;1266;22572;-74
2023/12/05 06:12:36;;;;;;;72.20;39.60;;;;;;;-3.39;82.38;98530.31;226379;1269;22597;-73
2023/12/05 06:17:38;;;;;;;74.50;42.00;;;;;;;-3.40;82.75;98525.91;226333;1273;22746;-74
2023/12/05 06:22:40;;;;;;;75.70;38.90;;;;;;;-3.39;82.38;98523.46;226406;1269;25605;-74
2023/12/05 06:27:42;;;;;;;73.50;38.80;;;;;;;-3.36;82.82;98521.02;226373;1272;22677;-74
2023/12/05 06:32:44;;;;;;;75.60;39.40;;;;;;;-3.33;83.06;98523.91;226477;1275;22619;-74
2023/12/05 06:37:46;;;;;;;79.20;43.10;;;;;;;-3.29;82.81;98533.77;226382;1272;22716;-75
2023/12/05 06:42:48;;;;;;;78.20;40.50;;;;;;;-3.27;82.54;98537.19;226479;1273;22566;-76
2023/12/05 06:47:50;;;;;;;75.20;40.10;;;;;;;-3.25;82.53;98542.45;226323;1255;22637;-77
2023/12/05 06:52:57;;;;;;;70.10;37.40;;;;;;;-3.24;82.70;98537.02;225822;1269;25491;-76
2023/12/05 06:57:59;;;;;;;65.00;34.70;;;;;;;-3.17;82.45;98536.87;226162;1272;22782;-77
2023/12/05 07:03:01;;;;;;;67.10;37.30;;;;;;;-3.09;82.77;98544.41;225914;1251;22870;-74
2023/12/05 07:08:03;;;;;;;70.30;39.20;;;;;;;-3.00;82.45;98541.88;225868;1264;22603;-73
2023/12/05 07:13:06;;;;;;;69.50;39.00;;;;;;;-2.94;82.50;98540.05;226012;1253;22639;-82
2023/12/05 07:18:08;;;;;;;71.50;39.50;;;;;;;-2.79;82.82;98535.23;225776;1253;22617;-74
2023/12/05 07:23:11;;;;;;;70.60;40.40;;;;;;;-2.62;82.98;98536.36;225808;1253;23519;-76
2023/12/05 07:28:13;;;;;;;70.90;40.20;;;;;;;-2.43;82.88;98536.70;225633;1256;22607;-76
2023/12/05 07:33:15;;;;;;;75.40;42.20;;;;;;;-2.31;82.59;98535.10;225664;1267;25824;-75
2023/12/05 07:38:17;;;;;;;73.50;44.10;;;;;;;-2.16;82.34;98538.33;225672;1261;22575;-76
2023/12/05 07:43:19;;;;;;;72.00;42.90;;;;;;;-2.02;82.44;98539.84;225825;1253;22571;-75
2023/12/05 07:48:21;;;;;;;75.70;44.10;;;;;;;-1.89;82.02;98536.75;225921;1260;23157;-77
2023/12/05 07:53:24;;;;;;;75.20;42.90;;;;;;;-1.72;82.21;98542.42;225718;1256;22543;-75
2023/12/05 07:58:26;;;;;;;78.90;45.30;;;;;;;-1.53;82.05;98534.38;225790;1253;22579;-76
2023/12/05 08:03:29;;;;;;;77.20;45.50;;;;;;;-1.31;82.11;98533.34;225740;1269;22516;-75
2023/12/05 08:08:34;;;;;;;73.50;40.90;;;;;;;-1.06;82.08;98533.61;225701;1253;23843;-77
2023/12/05 08:13:36;;;;;;;64.10;38.00;;;;;;;-0.83;81.86;98535.73;225765;1262;22972;-77
2023/12/05 08:18:39;;;;;;;63.30;35.30;;;;;;;-0.59;81.72;98534.50;225769;1256;22559;-76
2023/12/05 08:23:41;;;;;;;61.10;35.90;;;;;;;-0.40;81.54;98530.16;225786;1269;22876;-76
2023/12/05 08:28:43;;;;;;;59.70;34.80;;;;;;;-0.27;80.93;98535.50;225823;1257;24417;-77
2023/12/05 08:33:47;;;;;;;61.70;35.30;;;;;;;-0.19;80.38;98541.08;225861;1255;22915;-77
2023/12/05 08:38:50;;;;;;;68.20;38.20;;;;;;;-0.15;79.85;98545.38;225776;1262;23010;-77
2023/12/05 08:43:53;;;;;;;65.00;36.60;;;;;;;-0.06;79.62;98538.63;225693;1253;24353;-72
2023/12/05 08:48:55;;;;;;;71.30;39.20;;;;;;;-0.01;79.37;98543.91;225661;1256;24850;-74
2023/12/05 08:53:58;;;;;;;68.70;39.00;;;;;;;0.15;79.46;98547.71;225938;1263;22544;-74
2023/12/05 08:59:00;;;;;;;66.90;39.00;;;;;;;0.36;79.43;98547.85;225960;1254;22545;-73
2023/12/05 09:04:03;;;;;;;61.40;36.70;;;;;;;0.52;78.92;98550.66;226008;1256;22541;-73
2023/12/05 09:09:06;;;;;;;67.50;37.90;;;;;;;0.58;78.31;98544.92;226115;1261;22542;-73
2023/12/05 09:14:08;;;;;;;69.20;40.70;;;;;;;0.67;78.30;98538.92;225749;1269;22562;-74
2023/12/05 09:19:11;;;;;;;81.20;44.40;;;;;;;0.79;78.24;98539.30;225968;1251;22534;-76
2023/12/05 09:24:13;;;;;;;75.40;42.50;;;;;;;0.96;78.39;98534.20;225925;1253;22544;-76
2023/12/05 09:29:15;;;;;;;74.00;42.60;;;;;;;1.13;78.23;98531.98;225929;1256;22915;-74
2023/12/05 09:34:18;;;;;;;75.60;43.00;;;;;;;1.26;77.86;98533.15;225748;1256;22556;-75
2023/12/05 09:39:20;;;;;;;72.20;40.00;;;;;;;1.41;78.77;98531.11;225630;1256;23013;-74
2023/12/05 09:44:27;;;;;;;63.60;36.20;;;;;;;1.51;79.53;98515.12;225861;1269;22595;-81
2023/12/05 09:49:29;;;;;;;60.60;35.40;;;;;;;1.51;79.65;98508.48;225968;1272;22551;-74
2023/12/05 09:54:32;;;;;;;85.30;46.10;;;;;;;1.55;79.02;98510.91;225967;1253;22551;-73
2023/12/05 09:59:35;;;;;;;77.60;44.00;;;;;;;1.43;78.16;98506.11;225884;1253;22658;-72
2023/12/05 10:04:44;;;;;;;74.60;43.50;;;;;;;1.20;77.72;98503.07;225955;1265;22541;-73
2023/12/05 10:09:50;;;;;;;68.90;41.80;;;;;;;0.91;77.45;98501.30;226171;1257;22534;-72
2023/12/05 10:14:54;;;;;;;67.60;39.60;;;;;;;0.80;77.82;98499.55;226499;1264;25384;-72
2023/12/05 10:19:56;;;;;;;66.00;40.10;;;;;;;0.78;78.27;98490.35;228850;1266;22219;-72
2023/12/05 10:24:58;;;;;;;66.50;39.50;;;;;;;0.75;78.35;98490.30;226138;1263;22554;-72
2023/12/05 10:30:00;;;;;;;70.10;40.90;;;;;;;0.72;78.14;98489.17;225702;1253;22591;-73
2023/12/05 10:35:03;;;;;;;64.20;38.10;;;;;;;0.69;78.39;98492.34;225729;1253;22913;-72
2023/12/05 10:40:06;;;;;;;62.90;37.50;;;;;;;0.78;78.83;98492.30;225654;1252;22577;-72
2023/12/05 10:45:09;;;;;;;60.60;36.70;;;;;;;0.88;79.02;98480.77;226549;1254;22568;-72
2023/12/05 10:50:11;;;;;;;59.50;35.80;;;;;;;0.98;79.01;98474.48;225741;1256;22530;-72
2023/12/05 10:55:24;;;;;;;63.80;37.60;;;;;;;1.03;78.54;98471.16;225978;1256;22595;-74
2023/12/05 11:00:28;;;;;;;52.90;32.00;;;;;;;1.00;78.54;98461.83;225843;1253;22639;-74
2023/12/05 11:05:32;;;;;;;50.50;30.20;;;;;;;1.02;78.32;98468.23;225840;1256;22529;-75
2023/12/05 11:10:34;;;;;;;52.70;31.80;;;;;;;1.10;78.58;98468.41;225815;1253;22560;-75
2023/12/05 11:15:38;;;;;;;53.40;32.60;;;;;;;1.17;78.35;98469.71;225939;1272;22540;-74
2023/12/05 11:20:59;;;;;;;49.80;30.30;;;;;;;1.23;78.43;98467.63;225613;1269;199294;-75
2023/12/05 11:26:40;;;;;;;50.40;31.30;;;;;;;1.24;78.32;98472.63;225919;1253;25297;-76
2023/12/05 11:32:07;;;;;;;43.80;25.60;;;;;;;1.31;78.66;98469.63;225916;1267;22524;-76
2023/12/05 11:37:39;;;;;;;45.50;26.70;;;;;;;1.33;78.55;98464.13;225959;1275;22912;-78
2023/12/05 11:43:07;;;;;;;51.20;30.30;;;;;;;1.21;78.37;98463.61;225874;1264;22540;-77
2023/12/05 11:48:11;;;;;;;48.30;28.50;;;;;;;1.00;77.85;98461.32;226039;1256;22590;-75
2023/12/05 11:53:17;;;;;;;53.20;31.80;;;;;;;0.83;77.95;98451.48;225968;1256;23081;-75
2023/12/05 11:58:33;;;;;;;50.90;30.30;;;;;;;0.72;78.47;98452.74;225912;1269;22558;-75
2023/12/05 12:03:49;;;;;;;51.50;29.30;;;;;;;0.61;78.60;98453.33;226085;1269;23052;-75
2023/12/05 12:08:53;;;;;;;46.90;28.00;;;;;;;0.49;78.68;98452.50;225768;1269;22590;-75
2023/12/05 12:13:56;;;;;;;50.50;30.30;;;;;;;0.40;79.09;98457.30;225893;1259;22571;-75
2023/12/05 12:19:02;;;;;;;52.70;31.30;;;;;;;0.33;78.94;98453.70;226190;1256;22468;-77
2023/12/05 12:24:07;;;;;;;50.20;28.80;;;;;;;0.27;79.03;98451.45;226004;1275;23213;-78
2023/12/05 12:29:09;;;;;;;47.80;27.70;;;;;;;0.25;79.42;98451.45;225730;1255;22540;-78
2023/12/05 12:34:23;;;;;;;52.80;27.90;;;;;;;0.24;79.40;98453.65;225853;1258;22527;-77
2023/12/05 12:39:27;;;;;;;49.10;28.30;;;;;;;0.26;79.23;98454.67;225945;1260;22590;-77
2023/12/05 12:44:30;;;;;;;44.60;25.50;;;;;;;0.39;79.52;98452.19;225745;1272;26202;-77
2023/12/05 12:49:32;;;;;;;46.00;25.40;;;;;;;0.56;79.41;98449.98;225798;1271;22561;-77
2023/12/05 12:54:38;;;;;;;41.80;24.60;;;;;;;0.72;79.13;98449.63;225759;1253;22562;-77
2023/12/05 12:59:41;;;;;;;44.20;27.10;;;;;;;0.84;78.88;98446.50;225703;1265;22650;-77
2023/12/05 13:04:44;;;;;;;46.50;26.00;;;;;;;0.89;78.77;98446.52;225845;1254;22545;-83
2023/12/05 13:09:48;;;;;;;54.60;29.80;;;;;;;0.85;78.78;98450.03;225792;1254;22555;-76
2023/12/05 13:14:51;;;;;;;55.20;29.40;;;;;;;0.73;78.68;98446.45;225954;1252;22557;-76
2023/12/05 13:20:07;;;;;;;50.10;27.40;;;;;;;0.56;78.61;98447.56;225969;1254;22583;-75
2023/12/05 13:25:09;;;;;;;51.70;28.40;;;;;;;0.35;78.31;98448.20;225937;1253;22536;-77
2023/12/05 13:30:15;;;;;;;49.40;28.40;;;;;;;0.16;78.18;98449.95;225814;1253;22565;-76
2023/12/05 13:35:17;;;;;;;50.30;27.70;;;;;;;-0.03;78.12;98449.38;226003;1256;23000;-76
2023/12/05 13:40:19;;;;;;;47.30;26.90;;;;;;;-0.23;77.73;98450.91;225823;1271;22532;-76
2023/12/05 13:45:21;;;;;;;45.70;26.70;;;;;;;-0.39;78.26;98452.05;225797;1269;22536;-77
2023/12/05 13:50:26;;;;;;;47.10;27.10;;;;;;;-0.49;78.11;98450.77;225776;1261;25235;-76
2023/12/05 13:55:29;;;;;;;41.50;24.20;;;;;;;-0.55;78.34;98456.64;225755;1262;22594;-77
2023/12/05 14:00:31;;;;;;;43.70;24.90;;;;;;;-0.65;78.25;98458.52;225771;1261;22523;-76
2023/12/05 14:05:33;;;;;;;49.50;28.60;;;;;;;-0.83;77.80;98463.50;226004;1255;24618;-77
2023/12/05 14:10:37;;;;;;;51.80;29.30;;;;;;;-1.05;77.61;98470.09;225941;1251;22583;-75
2023/12/05 14:15:39;;;;;;;48.90;29.20;;;;;;;-1.31;77.28;98469.57;226093;1253;22547;-76
2023/12/05 14:20:41;;;;;;;51.60;28.40;;;;;;;-1.54;77.59;98472.61;226004;1256;22544;-74
2023/12/05 14:25:43;;;;;;;65.30;33.70;;;;;;;-1.72;78.01;98479.58;226115;1261;22913;-75
2023/12/05 14:30:45;;;;;;;82.10;39.70;;;;;;;-1.87;78.48;98486.92;225800;1262;22568;-77
2023/12/05 14:35:47;;;;;;;95.80;45.20;;;;;;;-1.98;78.75;98488.97;225769;1261;24270;-76
2023/12/05 14:40:49;;;;;;;66.60;36.00;;;;;;;-2.10;78.74;98494.03;225843;1266;22598;-75
2023/12/05 14:45:52;;;;;;;54.50;30.90;;;;;;;-2.19;79.14;98496.08;225815;1259;25552;-78
2023/12/05 14:50:54;;;;;;;56.30;29.50;;;;;;;-2.25;79.15;98493.31;225797;1263;22541;-81
2023/12/05 14:55:56;;;;;;;56.20;32.20;;;;;;;-2.30;79.45;98495.39;225811;1269;22715;-78
2023/12/05 15:01:00;;;;;;;57.80;31.90;;;;;;;-2.32;79.58;98497.94;225399;1269;22586;-78
2023/12/05 15:06:02;;;;;;;54.90;31.40;;;;;;;-2.36;79.26;98501.15;225567;1271;25417;-77
2023/12/05 15:11:05;;;;;;;62.80;34.60;;;;;;;-2.41;79.27;98495.18;225753;1272;25938;-78
2023/12/05 15:16:08;;;;;;;72.50;38.00;;;;;;;-2.48;79.23;98495.64;226008;1273;24947;-76
2023/12/05 15:21:10;;;;;;;77.30;41.80;;;;;;;-2.55;79.55;98501.34;226227;1272;23314;-75
2023/12/05 15:26:16;;;;;;;91.60;47.30;;;;;;;-2.62;79.53;98496.54;226583;1273;22717;-76
2023/12/05 15:31:18;;;;;;;97.90;50.40;;;;;;;-2.74;79.27;98493.98;226707;1275;22593;-75
2023/12/05 15:36:20;;;;;;;122.20;62.90;;;;;;;-2.86;79.66;98497.66;226518;1272;25549;-74
2023/12/05 15:41:22;;;;;;;133.30;69.90;;;;;;;-2.94;79.89;98500.96;226613;1275;22562;-75
2023/12/05 15:46:24;;;;;;;142.00;79.30;;;;;;;-3.02;80.64;98501.70;226603;1275;23203;-76
2023/12/05 15:51:33;;;;;;;128.90;69.30;;;;;;;-3.07;80.69;98508.40;226410;1275;22562;-76
2023/12/05 15:56:36;;;;;;;147.40;74.60;;;;;;;-3.15;80.13;98510.73;226583;1274;22705;-74
2023/12/05 16:01:39;;;;;;;226.90;115.00;;;;;;;-3.26;80.31;98514.78;226511;1273;23111;-77
2023/12/05 16:06:42;;;;;;;255.40;126.90;;;;;;;-3.37;80.50;98508.48;226646;1275;22587;-75
2023/12/05 16:11:45;;;;;;;175.00;94.20;;;;;;;-3.43;80.66;98507.20;226562;1274;22838;-75
2023/12/05 16:16:51;;;;;;;145.90;78.90;;;;;;;-3.50;81.07;98502.86;226627;1269;25687;-75
2023/12/05 16:21:56;;;;;;;147.70;80.10;;;;;;;-3.61;80.77;98493.47;226531;1273;22864;-75
2023/12/05 16:26:58;;;;;;;172.80;90.20;;;;;;;-3.73;81.10;98497.30;226437;1274;25586;-75
2023/12/05 16:32:00;;;;;;;180.90;94.50;;;;;;;-3.78;81.62;98494.52;226646;1273;22571;-76
2023/12/05 16:37:03;;;;;;;150.70;78.40;;;;;;;-3.81;81.84;98491.12;226370;1275;22597;-75
2023/12/05 16:42:06;;;;;;;186.60;100.40;;;;;;;-3.91;81.33;98499.75;226471;1275;22564;-76
2023/12/05 16:47:08;;;;;;;179.40;94.40;;;;;;;-4.00;81.31;98500.33;226509;1275;22592;-75
2023/12/05 16:52:11;;;;;;;179.80;89.70;;;;;;;-4.07;81.51;98503.07;226601;1275;22676;-75
2023/12/05 16:57:14;;;;;;;179.60;91.90;;;;;;;-4.14;81.43;98502.66;226412;1274;22569;-74
2023/12/05 17:02:18;;;;;;;173.60;88.50;;;;;;;-4.19;81.66;98509.70;226449;1274;22608;-76
2023/12/05 17:07:20;;;;;;;168.00;82.50;;;;;;;-4.17;82.16;98507.50;226465;1267;22578;-75
2023/12/05 17:12:23;;;;;;;139.40;72.20;;;;;;;-4.14;82.33;98502.84;226280;1275;22680;-76
2023/12/05 17:17:27;;;;;;;145.30;75.20;;;;;;;-4.14;82.25;98503.84;226507;1275;22583;-75
2023/12/05 17:22:31;;;;;;;146.00;76.00;;;;;;;-4.15;82.07;98511.27;226500;1270;22604;-74
2023/12/05 17:27:34;;;;;;;136.80;70.50;;;;;;;-4.16;81.85;98517.73;226526;1251;23158;-75
2023/12/05 17:32:36;;;;;;;140.30;75.60;;;;;;;-4.16;81.74;98526.89;226515;1275;22606;-75
2023/12/05 17:37:38;;;;;;;144.30;73.40;;;;;;;-4.13;81.95;98530.30;226578;1270;22617;-75
2023/12/05 17:42:41;;;;;;;139.20;73.10;;;;;;;-4.02;82.29;98531.73;226407;1274;22604;-75
2023/12/05 17:47:43;;;;;;;142.00;73.70;;;;;;;-3.86;82.65;98528.99;226486;1275;22574;-76
2023/12/05 17:52:45;;;;;;;138.00;70.10;;;;;;;-3.67;82.98;98527.66;226550;1274;22692;-74
2023/12/05 17:57:47;;;;;;;131.20;66.30;;;;;;;-3.47;82.92;98527.45;226569;1273;22609;-75
2023/12/05 18:02:50;;;;;;;106.60;57.10;;;;;;;-3.28;83.34;98528.19;226461;1274;23028;-76
2023/12/05 18:07:52;;;;;;;106.20;55.00;;;;;;;-3.11;83.21;98525.63;226557;1251;22972;-75
2023/12/05 18:13:01;;;;;;;89.40;48.70;;;;;;;-2.95;83.17;98527.59;226423;1273;22653;-74
2023/12/05 18:18:04;;;;;;;85.90;48.80;;;;;;;-2.80;83.28;98527.35;226635;1273;22571;-75
2023/12/05 18:23:06;;;;;;;90.30;49.60;;;;;;;-2.68;82.87;98530.26;226416;1272;22577;-76
2023/12/05 18:28:08;;;;;;;93.70;51.20;;;;;;;-2.57;83.24;98532.38;226481;1273;22727;-75
2023/12/05 18:33:15;;;;;;;111.40;59.70;;;;;;;-2.48;82.91;98535.16;226526;1274;22598;-74
2023/12/05 18:38:19;;;;;;;112.60;59.30;;;;;;;-2.42;82.63;98530.80;226587;1274;22583;-74
2023/12/05 18:43:21;;;;;;;115.10;60.00;;;;;;;-2.38;82.58;98525.83;226657;1274;22717;-75
2023/12/05 18:48:25;;;;;;;96.50;52.60;;;;;;;-2.36;82.43;98518.90;226594;1273;22705;-75
2023/12/05 18:53:30;;;;;;;110.80;59.10;;;;;;;-2.35;82.69;98514.71;226753;1273;22648;-75
2023/12/05 18:58:33;;;;;;;138.30;69.30;;;;;;;-2.37;82.48;98513.45;226375;1270;22720;-75
2023/12/05 19:03:37;;;;;;;116.70;59.90;;;;;;;-2.40;82.50;98507.70;226586;1251;22667;-74
2023/12/05 19:08:39;;;;;;;120.40;63.30;;;;;;;-2.48;82.31;98512.04;226538;1273;22610;-74
2023/12/05 19:13:42;;;;;;;111.10;58.80;;;;;;;-2.62;82.03;98514.45;226562;1266;22649;-74
2023/12/05 19:18:44;;;;;;;113.40;56.40;;;;;;;-2.78;82.21;98520.98;226617;1267;22584;-74
2023/12/05 19:23:46;;;;;;;102.10;53.50;;;;;;;-2.94;81.64;98520.95;226600;1270;22661;-74
2023/12/05 19:28:50;;;;;;;96.90;52.30;;;;;;;-3.11;81.76;98524.95;226575;1274;22580;-73
2023/12/05 19:33:58;;;;;;;123.90;65.00;;;;;;;-3.34;81.39;98525.87;226390;1274;22543;-73
2023/12/05 19:39:01;;;;;;;207.20;98.60;;;;;;;-3.61;80.96;98526.68;226624;1270;22573;-73
2023/12/05 19:44:04;;;;;;;215.70;103.50;;;;;;;-3.83;81.12;98526.20;226519;1262;23161;-73
2023/12/05 19:49:07;;;;;;;220.00;109.70;;;;;;;-3.99;81.03;98528.31;226504;1273;22606;-73
2023/12/05 19:54:10;;;;;;;217.20;103.40;;;;;;;-4.06;81.54;98523.92;226514;1260;22587;-73
2023/12/05 19:59:13;;;;;;;224.90;110.50;;;;;;;-4.10;81.47;98527.45;226573;1270;23245;-73
2023/12/05 20:04:16;;;;;;;217.60;105.50;;;;;;;-4.15;81.09;98534.70;226475;1274;22656;-72
2023/12/05 20:09:18;;;;;;;209.60;98.60;;;;;;;-4.13;81.65;98532.52;226445;1270;22640;-72
2023/12/05 20:14:20;;;;;;;220.00;98.50;;;;;;;-4.06;82.02;98532.36;226378;1275;22577;-73
2023/12/05 20:19:23;;;;;;;204.80;95.40;;;;;;;-3.94;82.26;98527.25;226498;1270;22597;-73
2023/12/05 20:24:27;;;;;;;219.10;106.10;;;;;;;-3.86;82.38;98530.01;226549;1274;22651;-73
2023/12/05 20:29:32;;;;;;;212.30;100.30;;;;;;;-3.77;82.81;98533.45;226889;1274;22596;-74
2023/12/05 20:34:35;;;;;;;214.30;105.30;;;;;;;-3.62;82.85;98526.25;226476;1270;22673;-73
2023/12/05 20:39:39;;;;;;;235.60;110.00;;;;;;;-3.51;82.81;98528.45;226603;1272;22743;-74
2023/12/05 20:44:41;;;;;;;213.90;104.90;;;;;;;-3.43;82.93;98530.09;226545;1269;22659;-73
2023/12/05 20:49:43;;;;;;;217.70;105.50;;;;;;;-3.36;82.96;98531.13;226540;1269;22600;-74
2023/12/05 20:54:46;;;;;;;205.60;100.30;;;;;;;-3.28;82.69;98528.67;226623;1274;22645;-74
2023/12/05 20:59:48;;;;;;;190.20;94.40;;;;;;;-3.21;82.84;98526.98;226470;1272;22796;-74
2023/12/05 21:04:50;;;;;;;173.90;83.80;;;;;;;-3.17;82.92;98537.07;226465;1270;22611;-73
2023/12/05 21:09:52;;;;;;;174.00;84.80;;;;;;;-3.14;82.77;98542.89;226491;1272;23720;-73
2023/12/05 21:14:55;;;;;;;172.00;86.50;;;;;;;-3.10;82.88;98542.94;226517;1273;22617;-73
2023/12/05 21:19:57;;;;;;;173.30;87.50;;;;;;;-3.05;82.95;98546.18;226590;1270;23328;-74
2023/12/05 21:24:59;;;;;;;161.20;81.20;;;;;;;-2.99;82.69;98544.70;226607;1272;22708;-74
2023/12/05 21:30:01;;;;;;;181.20;87.20;;;;;;;-2.98;83.03;98537.75;226396;1273;22636;-74
2023/12/05 21:35:05;;;;;;;182.20;90.30;;;;;;;-2.97;82.70;98539.64;226587;1272;22679;-75
2023/12/05 21:40:08;;;;;;;179.40;91.70;;;;;;;-2.96;82.75;98539.33;226582;1272;22612;-74
2023/12/05 21:45:11;;;;;;;182.00;92.10;;;;;;;-2.97;82.67;98549.07;226563;1272;24945;-74
2023/12/05 21:50:13;;;;;;;187.00;89.10;;;;;;;-2.94;83.00;98551.95;226442;1274;24468;-74
2023/12/05 21:55:15;;;;;;;177.50;89.70;;;;;;;-2.91;82.80;98559.80;226567;1275;22610;-74
2023/12/05 22:00:17;;;;;;;178.30;91.50;;;;;;;-2.87;83.13;98573.33;226397;1273;22590;-74
2023/12/05 22:05:21;;;;;;;195.50;97.10;;;;;;;-2.83;82.90;98572.07;226519;1272;22641;-74
2023/12/05 22:10:26;;;;;;;200.20;96.70;;;;;;;-2.78;82.86;98571.27;226566;1274;24290;-78
2023/12/05 22:15:28;;;;;;;211.40;102.50;;;;;;;-2.70;83.14;98573.52;226497;1273;22618;-74
2023/12/05 22:20:30;;;;;;;205.30;101.10;;;;;;;-2.61;83.08;98572.84;226492;1274;23066;-75
2023/12/05 22:25:33;;;;;;;148.00;74.50;;;;;;;-2.51;83.68;98567.24;226573;1275;23787;-74
2023/12/05 22:30:35;;;;;;;129.20;67.60;;;;;;;-2.39;83.71;98568.28;226571;1272;22685;-75
2023/12/05 22:35:42;;;;;;;121.20;62.50;;;;;;;-2.26;83.44;98572.52;226369;1260;22738;-75
2023/12/05 22:40:44;;;;;;;124.50;62.30;;;;;;;-2.15;83.54;98569.61;226617;1269;23101;-75
2023/12/05 22:45:46;;;;;;;118.00;59.50;;;;;;;-2.04;83.77;98573.84;226470;1273;24235;-76
2023/12/05 22:50:48;;;;;;;108.50;58.70;;;;;;;-1.96;83.65;98579.94;226578;1266;26037;-73
2023/12/05 22:55:50;;;;;;;110.90;59.60;;;;;;;-1.91;83.70;98577.47;226559;1272;22587;-74